createdAt,value
2017-09-29T00:00:36.660Z,1008.89
2017-09-29T00:01:46.998Z,1008.91
2017-09-29T00:02:57.026Z,1008.93
2017-09-29T00:04:07.062Z,1008.95
2017-09-29T00:05:17.400Z,1008.89
2017-09-29T00:06:27.751Z,1008.9
2017-09-29T00:07:38.092Z,1008.86
2017-09-29T00:08:49.269Z,1008.87
2017-09-29T00:09:59.606Z,1008.87
2017-09-29T00:11:10.067Z,1008.85
2017-09-29T00:12:20.415Z,1008.86
2017-09-29T00:13:30.782Z,1008.83
2017-09-29T00:14:40.795Z,1008.84
2017-09-29T00:15:50.883Z,1008.83
2017-09-29T00:17:01.234Z,1008.85
2017-09-29T00:18:11.245Z,1008.8
2017-09-29T00:19:21.583Z,1008.79
2017-09-29T00:20:31.918Z,1008.76
2017-09-29T00:21:42.318Z,1008.81
2017-09-29T00:22:52.691Z,1008.8
2017-09-29T00:24:02.718Z,1008.77
2017-09-29T00:25:13.064Z,1008.74
2017-09-29T00:26:23.405Z,1008.76
2017-09-29T00:27:33.741Z,1008.77
2017-09-29T00:28:43.773Z,1008.76
2017-09-29T00:29:54.116Z,1008.75
2017-09-29T00:31:04.458Z,1008.75
2017-09-29T00:32:14.310Z,1008.79
2017-09-29T00:33:24.072Z,1008.77
2017-09-29T00:34:34.418Z,1008.8
2017-09-29T00:35:44.436Z,1008.76
2017-09-29T00:36:54.776Z,1008.79
2017-09-29T00:38:05.973Z,1008.78
2017-09-29T00:39:16.315Z,1008.75
2017-09-29T00:40:26.655Z,1008.75
2017-09-29T00:41:36.720Z,1008.75
2017-09-29T00:42:47.051Z,1008.72
2017-09-29T00:43:57.421Z,1008.71
2017-09-29T00:45:07.825Z,1008.76
2017-09-29T00:46:17.535Z,1008.77
2017-09-29T00:47:27.886Z,1008.8
2017-09-29T00:48:37.903Z,1008.83
2017-09-29T00:49:48.232Z,1008.8
2017-09-29T00:50:58.624Z,1008.81
2017-09-29T00:52:08.955Z,1008.79
2017-09-29T00:53:19.288Z,1008.82
2017-09-29T00:54:29.617Z,1008.81
2017-09-29T00:55:39.950Z,1008.81
2017-09-29T00:56:50.271Z,1008.84
2017-09-29T00:58:00.301Z,1008.8
2017-09-29T00:59:10.648Z,1008.8
2017-09-29T01:00:20.673Z,1008.8
2017-09-29T01:01:31.028Z,1008.8
2017-09-29T01:02:41.371Z,1008.77
2017-09-29T01:03:51.702Z,1008.76
2017-09-29T01:05:02.040Z,1008.8
2017-09-29T01:06:12.065Z,1008.79
2017-09-29T01:07:22.096Z,1008.78
2017-09-29T01:08:32.128Z,1008.78
2017-09-29T01:09:42.145Z,1008.75
2017-09-29T01:10:52.484Z,1008.75
2017-09-29T01:12:02.511Z,1008.72
2017-09-29T01:13:12.871Z,1008.7
2017-09-29T01:14:22.911Z,1008.68
2017-09-29T01:15:33.237Z,1008.71
2017-09-29T01:16:43.255Z,1008.73
2017-09-29T01:17:53.278Z,1008.71
2017-09-29T01:19:03.614Z,1008.72
2017-09-29T01:20:13.963Z,1008.74
2017-09-29T01:21:24.294Z,1008.73
2017-09-29T01:22:34.316Z,1008.71
2017-09-29T01:23:44.683Z,1008.7
2017-09-29T01:24:55.006Z,1008.7
2017-09-29T01:26:05.386Z,1008.7
2017-09-29T01:27:15.407Z,1008.67
2017-09-29T01:28:25.119Z,1008.71
2017-09-29T01:29:35.126Z,1008.68
2017-09-29T01:30:45.155Z,1008.66
2017-09-29T01:31:55.540Z,1008.62
2017-09-29T01:33:05.885Z,1008.66
2017-09-29T01:34:15.950Z,1008.63
2017-09-29T01:35:26.303Z,1008.66
2017-09-29T01:36:36.312Z,1008.66
2017-09-29T01:37:46.658Z,1008.67
2017-09-29T01:38:56.380Z,1008.69
2017-09-29T01:40:06.402Z,1008.67
2017-09-29T01:41:16.741Z,1008.68
2017-09-29T01:42:26.775Z,1008.66
2017-09-29T01:43:37.113Z,1008.69
2017-09-29T01:44:47.138Z,1008.69
2017-09-29T01:45:57.158Z,1008.66
2017-09-29T01:47:07.502Z,1008.65
2017-09-29T01:48:19.189Z,1008.64
2017-09-29T01:49:29.530Z,1008.64
2017-09-29T01:50:39.548Z,1008.64
2017-09-29T01:51:49.893Z,1008.65
2017-09-29T01:53:00.234Z,1008.67
2017-09-29T01:54:10.261Z,1008.69
2017-09-29T01:55:21.574Z,1008.66
2017-09-29T01:56:31.619Z,1008.68
2017-09-29T01:57:41.962Z,1008.65
2017-09-29T01:58:52.238Z,1008.62
2017-09-29T02:00:02.586Z,1008.58
2017-09-29T02:01:12.973Z,1008.6
2017-09-29T02:02:23.310Z,1008.66
2017-09-29T02:03:33.651Z,1008.55
2017-09-29T02:04:43.362Z,1008.57
2017-09-29T02:05:53.715Z,1008.53
2017-09-29T02:07:03.473Z,1008.53
2017-09-29T02:08:13.805Z,1008.51
2017-09-29T02:09:24.166Z,1008.55
2017-09-29T02:10:34.189Z,1008.6
2017-09-29T02:11:44.528Z,1008.63
2017-09-29T02:12:54.915Z,1008.61
2017-09-29T02:14:05.251Z,1008.62
2017-09-29T02:15:15.589Z,1008.61
2017-09-29T02:16:25.931Z,1008.66
2017-09-29T02:17:36.269Z,1008.62
2017-09-29T02:18:46.290Z,1008.58
2017-09-29T02:19:56.612Z,1008.63
2017-09-29T02:21:06.622Z,1008.6
2017-09-29T02:22:16.960Z,1008.65
2017-09-29T02:23:26.666Z,1008.63
2017-09-29T02:24:37.048Z,1008.65
2017-09-29T02:25:47.407Z,1008.6
2017-09-29T02:26:57.747Z,1008.61
2017-09-29T02:28:08.095Z,1008.61
2017-09-29T02:29:18.444Z,1008.64
2017-09-29T02:30:28.522Z,1008.59
2017-09-29T02:31:38.529Z,1008.61
2017-09-29T02:32:48.559Z,1008.63
2017-09-29T02:33:58.891Z,1008.61
2017-09-29T02:35:08.926Z,1008.64
2017-09-29T02:36:19.306Z,1008.61
2017-09-29T02:37:29.641Z,1008.58
2017-09-29T02:38:39.666Z,1008.59
2017-09-29T02:39:50.010Z,1008.58
2017-09-29T02:40:59.724Z,1008.56
2017-09-29T02:42:10.057Z,1008.55
2017-09-29T02:43:20.062Z,1008.52
2017-09-29T02:44:30.089Z,1008.52
2017-09-29T02:45:40.429Z,1008.54
2017-09-29T02:46:50.765Z,1008.52
2017-09-29T02:48:01.193Z,1008.52
2017-09-29T02:49:11.206Z,1008.48
2017-09-29T02:50:20.916Z,1008.54
2017-09-29T02:51:31.257Z,1008.49
2017-09-29T02:52:41.289Z,1008.52
2017-09-29T02:53:51.631Z,1008.51
2017-09-29T02:55:01.978Z,1008.52
2017-09-29T02:56:12.363Z,1008.49
2017-09-29T02:57:22.706Z,1008.51
2017-09-29T02:58:33.043Z,1008.49
2017-09-29T02:59:43.369Z,1008.48
2017-09-29T03:00:53.701Z,1008.5
2017-09-29T03:02:04.042Z,1008.47
2017-09-29T03:34:09.069Z,1008.32
2017-09-29T03:35:19.398Z,1008.34
2017-09-29T03:36:29.730Z,1008.38
2017-09-29T03:37:40.057Z,1008.35
2017-09-29T03:38:50.079Z,1008.32
2017-09-29T03:39:59.502Z,1008.34
2017-09-29T03:41:09.833Z,1008.33
2017-09-29T03:42:19.863Z,1008.3
2017-09-29T03:43:30.180Z,1008.28
2017-09-29T03:44:39.884Z,1008.3
2017-09-29T03:45:50.280Z,1008.28
2017-09-29T03:47:00.287Z,1008.31
2017-09-29T03:48:10.624Z,1008.29
2017-09-29T03:49:20.631Z,1008.32
2017-09-29T03:50:30.966Z,1008.29
2017-09-29T03:51:41.339Z,1008.27
2017-09-29T03:52:51.352Z,1008.28
2017-09-29T03:54:01.370Z,1008.28
2017-09-29T03:55:11.694Z,1008.32
2017-09-29T03:56:22.074Z,1008.28
2017-09-29T03:57:32.147Z,1008.32
2017-09-29T03:58:42.494Z,1008.28
2017-09-29T03:59:52.838Z,1008.32
2017-09-29T04:01:02.859Z,1008.33
2017-09-29T04:02:13.190Z,1008.34
2017-09-29T04:03:23.257Z,1008.37
2017-09-29T04:04:33.275Z,1008.39
2017-09-29T04:05:43.310Z,1008.39
2017-09-29T04:06:53.341Z,1008.41
2017-09-29T04:08:03.684Z,1008.41
2017-09-29T04:09:13.755Z,1008.45
2017-09-29T04:10:24.106Z,1008.44
2017-09-29T04:11:34.463Z,1008.41
2017-09-29T04:12:44.801Z,1008.45
2017-09-29T04:13:55.150Z,1008.46
2017-09-29T04:15:05.489Z,1008.42
2017-09-29T04:16:15.490Z,1008.43
2017-09-29T04:17:25.196Z,1008.39
2017-09-29T04:18:35.538Z,1008.47
2017-09-29T04:19:45.897Z,1008.42
2017-09-29T04:20:55.964Z,1008.42
2017-09-29T04:22:06.307Z,1008.48
2017-09-29T04:23:16.655Z,1008.45
2017-09-29T04:24:26.678Z,1008.46
2017-09-29T04:25:36.715Z,1008.5
2017-09-29T04:26:47.102Z,1008.48
2017-09-29T04:27:57.435Z,1008.51
2017-09-29T04:29:07.775Z,1008.54
2017-09-29T04:30:18.111Z,1008.56
2017-09-29T04:31:28.444Z,1008.56
2017-09-29T04:32:38.464Z,1008.55
2017-09-29T04:33:48.491Z,1008.55
2017-09-29T04:34:58.853Z,1008.57
2017-09-29T04:36:09.187Z,1008.56
2017-09-29T04:37:19.556Z,1008.54
2017-09-29T04:38:29.619Z,1008.54
2017-09-29T04:39:40.000Z,1008.56
2017-09-29T04:40:50.333Z,1008.55
2017-09-29T04:42:00.361Z,1008.57
2017-09-29T04:43:10.387Z,1008.6
2017-09-29T04:44:20.734Z,1008.6
2017-09-29T04:45:31.112Z,1008.64
2017-09-29T04:46:41.131Z,1008.59
2017-09-29T04:47:51.473Z,1008.59
2017-09-29T04:49:01.816Z,1008.58
2017-09-29T04:50:12.217Z,1008.61
2017-09-29T04:51:22.552Z,1008.64
2017-09-29T04:52:32.571Z,1008.68
2017-09-29T04:53:42.587Z,1008.7
2017-09-29T04:54:52.919Z,1008.69
2017-09-29T04:56:02.941Z,1008.7
2017-09-29T04:57:13.288Z,1008.68
2017-09-29T04:58:23.647Z,1008.69
2017-09-29T04:59:33.988Z,1008.69
2017-09-29T05:00:44.325Z,1008.7
2017-09-29T05:01:54.665Z,1008.7
2017-09-29T05:03:04.361Z,1008.71
2017-09-29T05:04:14.396Z,1008.7
2017-09-29T05:05:24.105Z,1008.7
2017-09-29T05:06:34.441Z,1008.73
2017-09-29T05:07:44.853Z,1008.71
2017-09-29T05:08:54.556Z,1008.7
2017-09-29T05:10:04.589Z,1008.71
2017-09-29T05:11:14.604Z,1008.77
2017-09-29T05:12:24.616Z,1008.77
2017-09-29T05:13:34.673Z,1008.77
2017-09-29T05:14:45.005Z,1008.8
2017-09-29T05:15:55.333Z,1008.76
2017-09-29T05:17:05.716Z,1008.78
2017-09-29T05:18:16.056Z,1008.78
2017-09-29T05:19:26.089Z,1008.78
2017-09-29T05:20:36.428Z,1008.8
2017-09-29T05:21:46.790Z,1008.78
2017-09-29T05:22:57.126Z,1008.75
2017-09-29T05:24:07.479Z,1008.72
2017-09-29T05:25:17.861Z,1008.76
2017-09-29T05:26:28.203Z,1008.79
2017-09-29T05:27:38.541Z,1008.82
2017-09-29T05:28:48.884Z,1008.82
2017-09-29T05:29:58.916Z,1008.84
2017-09-29T05:31:09.299Z,1008.86
2017-09-29T05:32:19.329Z,1008.84
2017-09-29T05:33:29.649Z,1008.85
2017-09-29T05:34:39.993Z,1008.88
2017-09-29T05:35:50.032Z,1008.87
2017-09-29T05:37:00.051Z,1008.89
2017-09-29T05:38:10.054Z,1008.89
2017-09-29T05:39:20.084Z,1008.88
2017-09-29T05:40:30.429Z,1008.92
2017-09-29T05:41:40.766Z,1008.9
2017-09-29T05:42:50.466Z,1008.9
2017-09-29T05:44:00.827Z,1008.93
2017-09-29T05:45:11.156Z,1008.92
2017-09-29T05:46:21.494Z,1008.92
2017-09-29T05:47:31.514Z,1008.91
2017-09-29T05:48:41.876Z,1008.9
2017-09-29T05:49:52.217Z,1008.93
2017-09-29T05:51:02.566Z,1008.96
2017-09-29T05:52:12.910Z,1008.98
2017-09-29T05:53:23.258Z,1008.96
2017-09-29T05:54:33.283Z,1008.92
2017-09-29T05:55:43.631Z,1008.96
2017-09-29T05:56:53.334Z,1008.98
2017-09-29T05:58:03.345Z,1008.98
2017-09-29T05:59:13.690Z,1008.99
2017-09-29T06:00:24.041Z,1009
2017-09-29T06:01:34.380Z,1009
2017-09-29T06:02:44.398Z,1009.01
2017-09-29T06:03:54.737Z,1009.02
2017-09-29T06:05:05.088Z,1009.04
2017-09-29T06:06:14.807Z,1009.07
2017-09-29T06:07:25.130Z,1009.05
2017-09-29T06:08:35.466Z,1009.03
2017-09-29T06:09:45.794Z,1009.06
2017-09-29T06:10:56.131Z,1009.02
2017-09-29T06:12:06.515Z,1009.06
2017-09-29T06:13:16.854Z,1009.04
2017-09-29T06:14:27.180Z,1009.05
2017-09-29T06:15:37.296Z,1009.1
2017-09-29T06:16:47.302Z,1009.09
2017-09-29T06:17:57.326Z,1009.1
2017-09-29T06:19:07.659Z,1009.09
2017-09-29T06:20:17.997Z,1009.12
2017-09-29T06:21:28.023Z,1009.15
2017-09-29T06:22:38.395Z,1009.15
2017-09-29T06:23:48.420Z,1009.18
2017-09-29T06:24:58.756Z,1009.16
2017-09-29T06:26:08.812Z,1009.15
2017-09-29T06:27:19.147Z,1009.19
2017-09-29T06:28:29.486Z,1009.22
2017-09-29T06:29:39.833Z,1009.18
2017-09-29T06:30:50.215Z,1009.21
2017-09-29T06:32:00.550Z,1009.16
2017-09-29T06:33:10.946Z,1009.21
2017-09-29T06:34:21.281Z,1009.19
2017-09-29T06:35:31.309Z,1009.22
2017-09-29T06:36:41.335Z,1009.23
2017-09-29T06:37:51.681Z,1009.24
2017-09-29T06:39:02.017Z,1009.26
2017-09-29T06:40:12.359Z,1009.24
2017-09-29T06:41:22.406Z,1009.24
2017-09-29T06:42:32.744Z,1009.22
2017-09-29T06:43:43.082Z,1009.24
2017-09-29T06:44:53.486Z,1009.24
2017-09-29T06:46:03.864Z,1009.25
2017-09-29T06:47:14.210Z,1009.24
2017-09-29T06:48:24.546Z,1009.26
2017-09-29T06:49:34.878Z,1009.27
2017-09-29T06:50:45.273Z,1009.3
2017-09-29T06:51:55.310Z,1009.28
2017-09-29T06:53:05.322Z,1009.32
2017-09-29T06:54:15.683Z,1009.31
2017-09-29T06:55:26.013Z,1009.3
2017-09-29T06:56:36.081Z,1009.38
2017-09-29T06:57:46.440Z,1009.4
2017-09-29T06:58:56.462Z,1009.41
2017-09-29T07:00:06.816Z,1009.42
2017-09-29T07:01:16.836Z,1009.45
2017-09-29T07:02:26.859Z,1009.44
2017-09-29T07:03:36.880Z,1009.43
2017-09-29T07:04:46.932Z,1009.46
2017-09-29T07:05:57.888Z,1009.41
2017-09-29T07:07:08.286Z,1009.45
2017-09-29T07:08:18.627Z,1009.46
2017-09-29T07:09:28.676Z,1009.43
2017-09-29T07:10:39.010Z,1009.46
2017-09-29T07:11:49.053Z,1009.43
2017-09-29T07:12:59.391Z,1009.45
2017-09-29T07:14:09.771Z,1009.44
2017-09-29T07:15:20.126Z,1009.4
2017-09-29T07:16:30.154Z,1009.43
2017-09-29T07:17:40.492Z,1009.46
2017-09-29T07:18:50.836Z,1009.45
2017-09-29T07:20:01.230Z,1009.44
2017-09-29T07:21:11.580Z,1009.42
2017-09-29T07:22:21.899Z,1009.43
2017-09-29T07:23:31.600Z,1009.44
2017-09-29T07:24:41.941Z,1009.36
2017-09-29T07:25:51.974Z,1009.42
2017-09-29T07:27:02.320Z,1009.38
2017-09-29T07:28:12.656Z,1009.41
2017-09-29T07:29:23.014Z,1009.38
2017-09-29T07:30:33.346Z,1009.4
2017-09-29T07:31:43.420Z,1009.39
2017-09-29T07:32:53.745Z,1009.38
2017-09-29T07:34:03.780Z,1009.35
2017-09-29T07:35:14.143Z,1009.35
2017-09-29T07:36:24.484Z,1009.33
2017-09-29T07:37:34.885Z,1009.36
2017-09-29T07:38:45.223Z,1009.35
2017-09-29T07:39:55.245Z,1009.34
2017-09-29T07:41:05.585Z,1009.36
2017-09-29T07:42:15.959Z,1009.31
2017-09-29T07:43:26.003Z,1009.32
2017-09-29T07:44:36.040Z,1009.33
2017-09-29T07:45:46.609Z,1009.36
2017-09-29T07:46:57.856Z,1009.34
2017-09-29T07:48:08.608Z,1009.36
2017-09-29T07:49:20.401Z,1009.3
2017-09-29T07:50:30.804Z,1009.27
2017-09-29T07:51:40.821Z,1009.29
2017-09-29T07:52:51.163Z,1009.32
2017-09-29T07:54:01.198Z,1009.27
2017-09-29T07:55:11.286Z,1009.27
2017-09-29T07:56:21.633Z,1009.3
2017-09-29T07:57:31.990Z,1009.32
2017-09-29T07:58:42.639Z,1009.29
2017-09-29T07:59:52.978Z,1009.3
2017-09-29T08:01:03.381Z,1009.27
2017-09-29T08:02:13.402Z,1009.27
2017-09-29T08:03:23.425Z,1009.25
2017-09-29T08:04:33.767Z,1009.19
2017-09-29T08:05:43.782Z,1009.26
2017-09-29T08:06:54.164Z,1009.21
2017-09-29T08:08:04.506Z,1009.18
2017-09-29T08:09:14.843Z,1009.16
2017-09-29T08:10:25.173Z,1009.15
2017-09-29T08:11:35.513Z,1009.13
2017-09-29T08:12:45.598Z,1009.08
2017-09-29T08:13:55.955Z,1009.06
2017-09-29T08:15:06.321Z,1009.03
2017-09-29T08:16:16.353Z,1009.01
2017-09-29T08:17:26.697Z,1009.03
2017-09-29T08:18:37.045Z,1009.04
2017-09-29T08:19:47.078Z,1008.98
2017-09-29T08:20:57.422Z,1008.99
2017-09-29T08:22:07.777Z,1008.95
2017-09-29T08:23:18.121Z,1009.03
2017-09-29T08:24:28.514Z,1008.98
2017-09-29T08:25:38.856Z,1008.98
2017-09-29T08:26:49.196Z,1008.96
2017-09-29T08:27:59.544Z,1008.95
2017-09-29T08:29:09.565Z,1008.95
2017-09-29T08:30:19.915Z,1008.94
2017-09-29T08:31:30.305Z,1008.89
2017-09-29T08:32:40.322Z,1008.94
2017-09-29T08:33:50.688Z,1008.92
2017-09-29T08:35:00.729Z,1008.93
2017-09-29T08:36:11.189Z,1008.93
2017-09-29T08:37:21.203Z,1008.91
2017-09-29T08:38:31.558Z,1008.92
2017-09-29T08:39:41.603Z,1008.92
2017-09-29T08:40:51.935Z,1008.88
2017-09-29T08:42:02.015Z,1008.78
2017-09-29T08:43:12.349Z,1008.84
2017-09-29T08:44:22.694Z,1008.81
2017-09-29T08:45:33.026Z,1008.84
2017-09-29T08:46:43.064Z,1008.84
2017-09-29T08:47:53.090Z,1008.88
2017-09-29T08:49:03.443Z,1008.89
2017-09-29T08:50:13.808Z,1008.84
2017-09-29T08:51:23.845Z,1008.88
2017-09-29T08:52:34.247Z,1008.85
2017-09-29T08:53:44.643Z,1008.84
2017-09-29T08:54:54.982Z,1008.87
2017-09-29T08:56:05.329Z,1008.87
2017-09-29T08:57:15.685Z,1008.88
2017-09-29T08:58:26.031Z,1008.89
2017-09-29T08:59:36.326Z,1008.83
2017-09-29T09:00:46.683Z,1008.9
2017-09-29T09:01:57.073Z,1008.87
2017-09-29T09:03:07.437Z,1008.89
2017-09-29T09:04:17.462Z,1008.89
2017-09-29T09:05:27.873Z,1008.88
2017-09-29T09:06:38.219Z,1008.86
2017-09-29T09:07:48.254Z,1008.83
2017-09-29T09:08:58.888Z,1008.87
2017-09-29T09:10:09.248Z,1008.85
2017-09-29T09:11:19.660Z,1008.85
2017-09-29T09:12:30.031Z,1008.82
2017-09-29T09:13:40.060Z,1008.81
2017-09-29T09:14:50.416Z,1008.79
2017-09-29T09:16:00.764Z,1008.79
2017-09-29T09:17:11.158Z,1008.77
2017-09-29T09:18:21.504Z,1008.77
2017-09-29T09:19:31.535Z,1008.75
2017-09-29T09:20:41.907Z,1008.69
2017-09-29T09:21:52.261Z,1008.75
2017-09-29T09:23:02.623Z,1008.68
2017-09-29T09:24:13.059Z,1008.68
2017-09-29T09:25:23.403Z,1008.66
2017-09-29T09:26:33.758Z,1008.7
2017-09-29T09:27:44.099Z,1008.66
2017-09-29T09:28:54.495Z,1008.71
2017-09-29T09:30:04.830Z,1008.65
2017-09-29T09:31:14.855Z,1008.63
2017-09-29T09:32:25.209Z,1008.63
2017-09-29T09:33:35.554Z,1008.64
2017-09-29T09:34:45.903Z,1008.58
2017-09-29T09:35:56.252Z,1008.55
2017-09-29T09:37:06.597Z,1008.58
2017-09-29T09:38:17.001Z,1008.54
2017-09-29T09:39:27.343Z,1008.55
2017-09-29T09:40:37.694Z,1008.57
2017-09-29T09:41:48.041Z,1008.52
2017-09-29T09:42:58.389Z,1008.5
2017-09-29T09:44:07.482Z,1008.52
2017-09-29T09:45:17.499Z,1008.47
2017-09-29T09:46:27.876Z,1008.48
2017-09-29T09:47:37.916Z,1008.45
2017-09-29T09:48:47.634Z,1008.41
2017-09-29T09:49:57.713Z,1008.42
2017-09-29T09:51:08.066Z,1008.42
2017-09-29T09:52:18.096Z,1008.44
2017-09-29T09:53:28.451Z,1008.39
2017-09-29T09:54:38.791Z,1008.42
2017-09-29T09:55:49.145Z,1008.42
2017-09-29T09:56:59.171Z,1008.42
2017-09-29T09:58:22.254Z,1008.39
2017-09-29T10:24:05.743Z,1008.17
2017-09-29T10:25:16.442Z,1008.13
2017-09-29T10:26:28.478Z,1008.12
2017-09-29T10:27:38.842Z,1008.1
2017-09-29T10:28:50.175Z,1008.16
2017-09-29T10:30:01.672Z,1008.11
2017-09-29T10:31:12.016Z,1008.12
2017-09-29T10:32:22.358Z,1008.06
2017-09-29T10:33:36.378Z,1008.1
2017-09-29T10:51:40.249Z,1007.87
2017-09-29T10:52:50.610Z,1007.84
2017-09-29T10:57:50.597Z,1007.88
2017-09-29T10:59:02.843Z,1007.83
2017-09-29T11:00:13.743Z,1007.91
2017-09-29T11:01:24.087Z,1007.86
2017-09-29T11:02:34.109Z,1007.84
2017-09-29T11:03:44.483Z,1007.81
2017-09-29T11:04:54.818Z,1007.85
2017-09-29T11:06:04.530Z,1007.77
2017-09-29T11:07:14.568Z,1007.81
2017-09-29T11:08:24.908Z,1007.78
2017-09-29T11:09:36.286Z,1007.75
2017-09-29T11:10:46.622Z,1007.75
2017-09-29T11:11:57.444Z,1007.81
2017-09-29T11:13:09.962Z,1007.78
2017-09-29T11:14:20.046Z,1007.75
2017-09-29T11:15:30.385Z,1007.79
2017-09-29T11:16:40.917Z,1007.75
2017-09-29T11:17:51.244Z,1007.77
2017-09-29T11:19:02.508Z,1007.8
2017-09-29T11:20:12.921Z,1007.78
2017-09-29T11:21:22.954Z,1007.87
2017-09-29T11:22:33.310Z,1007.77
2017-09-29T11:23:44.774Z,1007.8
2017-09-29T11:24:54.830Z,1007.76
2017-09-29T11:26:05.182Z,1007.73
2017-09-29T11:27:15.529Z,1007.79
2017-09-29T11:28:25.885Z,1007.78
2017-09-29T11:29:36.749Z,1007.75
2017-09-29T11:30:46.786Z,1007.78
2017-09-29T11:31:58.225Z,1007.77
2017-09-29T11:33:08.580Z,1007.79
2017-09-29T11:34:18.933Z,1007.78
2017-09-29T11:35:28.645Z,1007.75
2017-09-29T11:36:38.683Z,1007.79
2017-09-29T11:37:49.072Z,1007.75
2017-09-29T11:38:59.089Z,1007.73
2017-09-29T11:40:09.137Z,1007.72
2017-09-29T11:41:19.467Z,1007.66
2017-09-29T11:42:29.819Z,1007.71
2017-09-29T11:43:39.861Z,1007.68
2017-09-29T11:44:50.195Z,1007.71
2017-09-29T11:45:59.918Z,1007.62
2017-09-29T11:47:10.282Z,1007.7
2017-09-29T11:48:20.313Z,1007.7
2017-09-29T11:49:30.658Z,1007.66
2017-09-29T11:50:41.016Z,1007.64
2017-09-29T11:51:51.375Z,1007.65
2017-09-29T11:53:01.740Z,1007.65
2017-09-29T11:54:12.088Z,1007.64
2017-09-29T11:55:22.440Z,1007.67
2017-09-29T11:56:32.471Z,1007.61
2017-09-29T11:57:42.819Z,1007.65
2017-09-29T11:58:53.197Z,1007.61
2017-09-29T12:00:03.235Z,1007.64
2017-09-29T12:01:13.650Z,1007.58
2017-09-29T12:02:23.678Z,1007.57
2017-09-29T12:03:34.644Z,1007.56
2017-09-29T12:04:45.075Z,1007.62
2017-09-29T12:05:55.594Z,1007.53
2017-09-29T12:07:05.991Z,1007.55
2017-09-29T12:08:16.339Z,1007.52
2017-09-29T12:09:26.809Z,1007.56
2017-09-29T12:10:37.302Z,1007.5
2017-09-29T12:11:47.342Z,1007.58
2017-09-29T12:12:57.691Z,1007.54
2017-09-29T12:14:08.224Z,1007.52
2017-09-29T12:15:19.691Z,1007.51
2017-09-29T12:16:30.046Z,1007.49
2017-09-29T12:17:40.422Z,1007.46
2017-09-29T12:18:50.844Z,1007.51
2017-09-29T12:20:01.189Z,1007.5
2017-09-29T12:21:12.880Z,1007.46
2017-09-29T12:22:27.309Z,1007.44
2017-09-29T12:23:41.317Z,1007.4
2017-09-29T12:24:55.653Z,1007.45
2017-09-29T12:26:10.216Z,1007.44
2017-09-29T12:27:20.588Z,1007.4
2017-09-29T12:28:30.951Z,1007.43
2017-09-29T12:29:41.314Z,1007.42
2017-09-29T12:30:51.680Z,1007.36
2017-09-29T12:32:01.718Z,1007.34
2017-09-29T12:33:11.436Z,1007.35
2017-09-29T12:34:21.825Z,1007.34
2017-09-29T12:35:32.255Z,1007.28
2017-09-29T12:36:42.309Z,1007.3
2017-09-29T12:37:52.360Z,1007.34
2017-09-29T12:39:02.108Z,1007.4
2017-09-29T12:40:12.476Z,1007.32
2017-09-29T12:41:22.872Z,1007.27
2017-09-29T12:42:33.315Z,1007.25
2017-09-29T12:43:43.336Z,1007.32
2017-09-29T12:44:53.685Z,1007.26
2017-09-29T12:46:04.043Z,1007.21
2017-09-29T12:47:14.074Z,1007.19
2017-09-29T12:48:24.452Z,1007.22
2017-09-29T12:49:34.837Z,1007.19
2017-09-29T12:50:46.044Z,1007.22
2017-09-29T12:51:56.094Z,1007.19
2017-09-29T12:53:06.505Z,1007.16
2017-09-29T12:54:16.520Z,1007.18
2017-09-29T12:55:26.549Z,1007.15
2017-09-29T12:56:36.576Z,1007.21
2017-09-29T12:57:48.793Z,1007.21
2017-09-29T12:58:59.212Z,1007.2
2017-09-29T13:00:09.581Z,1007.19
2017-09-29T13:01:19.921Z,1007.14
2017-09-29T13:02:30.272Z,1007.15
2017-09-29T13:03:40.642Z,1007.13
2017-09-29T13:04:51.032Z,1007.09
2017-09-29T13:06:01.401Z,1007.08
2017-09-29T13:07:11.776Z,1007.1
2017-09-29T13:08:21.839Z,1007.11
2017-09-29T13:09:32.185Z,1007.1
2017-09-29T13:10:42.589Z,1007.07
2017-09-29T13:11:52.941Z,1007.05
2017-09-29T13:13:03.314Z,1007.03
2017-09-29T13:14:13.338Z,1007.1
2017-09-29T13:15:23.700Z,1007.07
2017-09-29T13:16:34.156Z,1007.06
2017-09-29T13:17:44.207Z,1007.06
2017-09-29T13:18:54.570Z,1007.09
2017-09-29T13:20:04.952Z,1007.08
2017-09-29T13:21:14.986Z,1007.07
2017-09-29T13:22:25.375Z,1007.05
2017-09-29T13:23:35.087Z,1007.05
2017-09-29T13:24:45.429Z,1007.05
2017-09-29T13:25:55.485Z,1007.05
2017-09-29T13:27:05.824Z,1007.05
2017-09-29T13:28:16.197Z,1007.04
2017-09-29T13:29:26.552Z,1006.96
2017-09-29T13:30:36.915Z,1006.97
2017-09-29T13:31:47.268Z,1007
2017-09-29T13:32:57.946Z,1006.98
2017-09-29T13:34:08.010Z,1006.99
2017-09-29T13:35:18.380Z,1006.9
2017-09-29T13:36:28.140Z,1006.91
2017-09-29T13:37:38.520Z,1006.87
2017-09-29T13:39:01.022Z,1006.88
2017-09-29T13:40:11.047Z,1006.84
2017-09-29T13:41:21.400Z,1006.89
2017-09-29T13:42:31.809Z,1006.93
2017-09-29T13:43:42.184Z,1006.85
2017-09-29T13:44:53.139Z,1006.82
2017-09-29T13:46:03.520Z,1006.88
2017-09-29T13:47:14.839Z,1006.82
2017-09-29T13:48:25.610Z,1006.82
2017-09-29T13:49:35.979Z,1006.85
2017-09-29T13:50:46.029Z,1006.81
2017-09-29T13:51:56.395Z,1006.83
2017-09-29T13:53:06.765Z,1006.82
2017-09-29T13:54:17.123Z,1006.8
2017-09-29T13:55:27.556Z,1006.76
2017-09-29T13:56:37.903Z,1006.78
2017-09-29T13:57:47.939Z,1006.75
2017-09-29T13:58:57.971Z,1006.75
2017-09-29T14:00:08.307Z,1006.73
2017-09-29T14:01:18.370Z,1006.75
2017-09-29T14:02:28.418Z,1006.69
2017-09-29T14:03:38.782Z,1006.76
2017-09-29T14:04:48.822Z,1006.72
2017-09-29T14:05:59.172Z,1006.74
2017-09-29T14:07:10.152Z,1006.7
2017-09-29T14:08:20.209Z,1006.71
2017-09-29T14:09:30.561Z,1006.75
2017-09-29T14:10:40.927Z,1006.74
2017-09-29T14:11:51.277Z,1006.77
2017-09-29T14:13:01.357Z,1006.72
2017-09-29T14:14:11.712Z,1006.73
2017-09-29T14:15:21.799Z,1006.72
2017-09-29T14:16:31.846Z,1006.75
2017-09-29T14:17:41.547Z,1006.7
2017-09-29T14:18:51.969Z,1006.73
2017-09-29T14:20:02.347Z,1006.7
2017-09-29T14:21:12.071Z,1006.7
2017-09-29T14:22:22.458Z,1006.7
2017-09-29T14:23:32.812Z,1006.69
2017-09-29T14:24:43.237Z,1006.72
2017-09-29T14:25:53.267Z,1006.73
2017-09-29T14:27:03.612Z,1006.75
2017-09-29T14:28:13.763Z,1006.71
2017-09-29T14:29:23.813Z,1006.72
2017-09-29T14:30:34.256Z,1006.75
2017-09-29T14:31:44.628Z,1006.76
2017-09-29T14:32:54.689Z,1006.67
2017-09-29T14:34:05.032Z,1006.73
2017-09-29T14:35:15.390Z,1006.69
2017-09-29T14:36:25.432Z,1006.65
2017-09-29T14:37:37.124Z,1006.73
2017-09-29T14:38:46.854Z,1006.67
2017-09-29T14:39:56.933Z,1006.61
2017-09-29T14:41:07.285Z,1006.66
2017-09-29T14:42:17.650Z,1006.65
2017-09-29T14:43:27.724Z,1006.6
2017-09-29T14:44:38.083Z,1006.61
2017-09-29T14:45:48.450Z,1006.59
2017-09-29T14:46:58.810Z,1006.63
2017-09-29T14:48:09.168Z,1006.56
2017-09-29T14:49:19.521Z,1006.6
2017-09-29T14:50:29.901Z,1006.56
2017-09-29T14:51:40.553Z,1006.56
2017-09-29T14:52:51.354Z,1006.59
2017-09-29T14:54:01.761Z,1006.6
2017-09-29T14:55:12.187Z,1006.59
2017-09-29T14:56:22.627Z,1006.61
2017-09-29T14:57:33.006Z,1006.61
2017-09-29T14:58:43.379Z,1006.61
2017-09-29T14:59:53.752Z,1006.57
2017-09-29T15:01:04.147Z,1006.61
2017-09-29T15:02:14.498Z,1006.59
2017-09-29T15:03:24.537Z,1006.59
2017-09-29T15:04:34.938Z,1006.58
2017-09-29T15:05:45.285Z,1006.64
2017-09-29T15:06:55.641Z,1006.6
2017-09-29T15:08:06.012Z,1006.57
2017-09-29T15:09:16.353Z,1006.55
2017-09-29T15:10:26.754Z,1006.54
2017-09-29T15:11:37.131Z,1006.56
2017-09-29T15:12:47.487Z,1006.63
2017-09-29T15:13:57.857Z,1006.64
2017-09-29T15:15:07.894Z,1006.62
2017-09-29T15:16:18.311Z,1006.65
2017-09-29T15:17:28.902Z,1006.62
2017-09-29T15:18:38.946Z,1006.61
2017-09-29T15:19:49.294Z,1006.67
2017-09-29T15:20:59.635Z,1006.66
2017-09-29T15:22:10.050Z,1006.68
2017-09-29T15:23:21.409Z,1006.65
2017-09-29T15:24:31.795Z,1006.66
2017-09-29T15:25:42.149Z,1006.72
2017-09-29T15:26:52.500Z,1006.69
2017-09-29T15:28:02.897Z,1006.7
2017-09-29T15:29:13.254Z,1006.67
2017-09-29T15:30:23.286Z,1006.66